createdAt,value
2023-05-01T00:00:34.559Z,101274.19
2023-05-01T00:02:38.725Z,101280.44
2023-05-01T00:04:42.706Z,101281.28
2023-05-01T00:06:46.686Z,101280.44
2023-05-01T00:08:50.874Z,101274.34
2023-05-01T00:10:54.692Z,101272.66
2023-05-01T00:12:58.554Z,101282.31
2023-05-01T00:15:03.848Z,101283.28
2023-05-01T00:17:07.392Z,101279.56
2023-05-01T00:19:12.846Z,101277.00
2023-05-01T00:21:16.965Z,101282.41
2023-05-01T00:23:23.906Z,101275.34
2023-05-01T00:25:27.909Z,101276.28
2023-05-01T00:27:31.703Z,101279.66
2023-05-01T00:29:35.600Z,101275.22
2023-05-01T00:31:41.888Z,101277.88
2023-05-01T00:33:47.285Z,101274.34
2023-05-01T00:35:51.655Z,101277.88
2023-05-01T00:37:55.627Z,101272.66
2023-05-01T00:40:00.014Z,101269.25
2023-05-01T00:42:05.196Z,101266.59
2023-05-01T00:44:08.855Z,101270.28
2023-05-01T00:46:12.567Z,101275.69
2023-05-01T00:48:17.645Z,101275.69
2023-05-01T00:50:21.463Z,101277.41
2023-05-01T00:52:26.418Z,101274.75
2023-05-01T00:54:30.091Z,101279.09
2023-05-01T00:56:34.250Z,101278.16
2023-05-01T00:58:39.142Z,101273.78
2023-05-01T01:00:43.359Z,101271.13
2023-05-01T01:02:48.106Z,101279.09
2023-05-01T01:04:53.461Z,101279.19
2023-05-01T01:07:05.624Z,101281.00
2023-05-01T01:09:24.386Z,101279.19
2023-05-01T01:11:38.647Z,101281.75
2023-05-01T01:13:53.119Z,101280.91
2023-05-01T01:16:05.402Z,101279.19
2023-05-01T01:18:13.874Z,101282.72
2023-05-01T01:20:34.730Z,101279.19
2023-05-01T01:22:41.449Z,101281.75
2023-05-01T01:25:02.183Z,101279.97
2023-05-01T01:27:41.212Z,101280.91
2023-05-01T01:30:07.405Z,101277.41
2023-05-01T01:32:28.381Z,101281.09
2023-05-01T01:34:36.484Z,101273.41
2023-05-01T01:36:44.358Z,101281.56
2023-05-01T01:38:54.593Z,101274.75
2023-05-01T01:41:03.364Z,101277.59
2023-05-01T01:43:10.223Z,101267.91
2023-05-01T01:45:19.419Z,101272.47
2023-05-01T01:47:28.465Z,101272.47
2023-05-01T01:49:36.324Z,101268.84
2023-05-01T01:51:42.053Z,101269.63
2023-05-01T01:53:51.327Z,101266.19
2023-05-01T01:55:58.401Z,101259.13
2023-05-01T01:58:05.573Z,101259.00
2023-05-01T02:00:13.203Z,101260.63
2023-05-01T02:02:20.670Z,101252.66
2023-05-01T02:04:26.722Z,101259.59
2023-05-01T02:06:36.538Z,101260.44
2023-05-01T02:08:42.351Z,101258.72
2023-05-01T02:10:48.682Z,101256.06
2023-05-01T02:12:54.537Z,101259.69
2023-05-01T02:15:01.565Z,101262.34
2023-05-01T02:17:06.247Z,101249.13
2023-05-01T02:19:10.939Z,101257.03
2023-05-01T02:21:17.218Z,101251.63
2023-05-01T02:23:23.084Z,101251.63
2023-05-01T02:25:30.412Z,101255.13
2023-05-01T02:27:40.060Z,101247.94
2023-05-01T02:29:44.549Z,101254.09
2023-05-01T02:31:48.347Z,101250.59
2023-05-01T02:33:52.426Z,101247.94
2023-05-01T02:35:56.965Z,101254.09
2023-05-01T02:38:00.710Z,101252.38
2023-05-01T02:40:08.544Z,101246.22
2023-05-01T02:42:14.677Z,101247.16
2023-05-01T02:44:19.326Z,101247.16
2023-05-01T02:46:27.951Z,101247.25
2023-05-01T02:48:33.387Z,101249.06
2023-05-01T02:50:40.732Z,101253.50
2023-05-01T02:52:45.448Z,101248.31
2023-05-01T02:55:03.694Z,101250.28
2023-05-01T02:57:09.012Z,101254.66
2023-05-01T02:59:13.063Z,101245.06
2023-05-01T03:01:17.169Z,101257.50
2023-05-01T03:03:21.924Z,101253.13
2023-05-01T03:05:26.311Z,101251.34
2023-05-01T03:07:35.258Z,101254.84
2023-05-01T03:09:38.860Z,101259.94
2023-05-01T03:11:42.539Z,101255.53
2023-05-01T03:13:47.873Z,101250.22
2023-05-01T03:15:51.866Z,101251.25
2023-05-01T03:17:57.545Z,101251.25
2023-05-01T03:20:01.375Z,101248.59
2023-05-01T03:22:05.240Z,101246.88
2023-05-01T03:24:09.743Z,101245.94
2023-05-01T03:26:13.889Z,101244.22
2023-05-01T03:28:18.054Z,101245.94
2023-05-01T03:30:23.435Z,101243.28
2023-05-01T03:32:29.542Z,101243.38
2023-05-01T03:34:34.509Z,101244.44
2023-05-01T03:36:38.560Z,101247.06
2023-05-01T03:38:42.622Z,101248.75
2023-05-01T03:40:46.720Z,101249.84
2023-05-01T03:43:10.088Z,101253.53
2023-05-01T03:45:14.848Z,101250.88
2023-05-01T03:47:21.040Z,101250.00
2023-05-01T03:49:25.331Z,101260.50
2023-05-01T03:51:29.988Z,101250.78
2023-05-01T03:53:33.836Z,101262.22
2023-05-01T03:55:41.295Z,101263.09
2023-05-01T03:57:47.293Z,101255.13
2023-05-01T03:59:53.261Z,101269.16
2023-05-01T04:01:58.542Z,101265.66
2023-05-01T04:04:08.287Z,101258.63
2023-05-01T04:06:18.699Z,101272.75
2023-05-01T04:08:22.843Z,101272.84
2023-05-01T04:10:27.385Z,101271.91
2023-05-01T04:12:38.051Z,101271.06
2023-05-01T04:14:43.903Z,101287.16
2023-05-01T04:16:48.892Z,101281.94
2023-05-01T04:18:53.185Z,101282.13
2023-05-01T04:20:59.996Z,101284.88
2023-05-01T04:23:10.420Z,101286.66
2023-05-01T04:25:22.910Z,101291.97
2023-05-01T04:27:31.951Z,101299.94
2023-05-01T04:29:36.864Z,101288.38
2023-05-01T04:31:41.933Z,101287.63
2023-05-01T04:33:47.216Z,101293.69
2023-05-01T04:35:52.433Z,101298.06
2023-05-01T04:37:58.554Z,101297.97
2023-05-01T04:40:03.010Z,101299.84
2023-05-01T04:42:08.530Z,101301.66
2023-05-01T04:44:13.506Z,101302.50
2023-05-01T04:46:17.861Z,101312.25
2023-05-01T04:48:24.636Z,101311.31
2023-05-01T04:50:31.907Z,101318.41
2023-05-01T04:52:41.208Z,101313.97
2023-05-01T04:54:52.459Z,101322.78
2023-05-01T04:57:00.580Z,101315.69
2023-05-01T04:59:08.037Z,101321.84
2023-05-01T05:01:13.368Z,101324.50
2023-05-01T05:03:21.236Z,101324.41
2023-05-01T05:05:30.090Z,101325.28
2023-05-01T05:07:35.425Z,101326.97
2023-05-01T05:09:59.194Z,101327.84
2023-05-01T05:12:06.614Z,101331.22
2023-05-01T05:14:13.333Z,101339.19
2023-05-01T05:16:19.471Z,101339.28
2023-05-01T05:18:23.887Z,101333.03
2023-05-01T05:20:29.948Z,101332.09
2023-05-01T05:22:39.298Z,101339.97
2023-05-01T05:25:04.656Z,101335.31
2023-05-01T05:27:08.861Z,101324.59
2023-05-01T05:29:13.147Z,101328.78
2023-05-01T05:31:17.819Z,101332.41
2023-05-01T05:33:22.651Z,101338.44
2023-05-01T05:35:27.898Z,101338.19
2023-05-01T05:37:31.670Z,101344.16
2023-05-01T05:39:35.776Z,101343.88
2023-05-01T05:41:41.430Z,101335.72
2023-05-01T05:43:45.472Z,101338.38
2023-05-01T05:45:49.803Z,101341.88
2023-05-01T05:47:54.230Z,101341.03
2023-05-01T05:49:58.662Z,101345.56
2023-05-01T05:52:03.955Z,101345.03
2023-05-01T05:54:08.056Z,101344.34
2023-05-01T05:56:13.796Z,101348.88
2023-05-01T05:58:21.668Z,101344.44
2023-05-01T06:00:26.828Z,101344.25
2023-05-01T06:02:32.363Z,101349.25
2023-05-01T06:04:36.860Z,101351.47
2023-05-01T06:06:42.861Z,101356.88
2023-05-01T06:08:47.132Z,101355.56
2023-05-01T06:10:51.802Z,101353.63
2023-05-01T06:13:04.135Z,101365.25
2023-05-01T06:15:24.981Z,101372.34
2023-05-01T06:17:31.577Z,101377.06
2023-05-01T06:19:36.570Z,101379.91
2023-05-01T06:21:47.203Z,101379.28
2023-05-01T06:23:52.648Z,101374.91
2023-05-01T06:26:04.516Z,101375.00
2023-05-01T06:28:12.965Z,101381.25
2023-05-01T06:30:20.295Z,101384.84
2023-05-01T06:32:26.416Z,101387.59
2023-05-01T06:34:31.766Z,101385.13
2023-05-01T06:36:37.629Z,101390.56
2023-05-01T06:38:45.803Z,101389.69
2023-05-01T06:40:53.394Z,101385.25
2023-05-01T06:42:58.349Z,101392.31
2023-05-01T06:45:06.274Z,101394.97
2023-05-01T06:47:11.234Z,101394.16
2023-05-01T06:49:20.081Z,101400.28
2023-05-01T06:51:25.268Z,101398.50
2023-05-01T06:53:31.522Z,101398.41
2023-05-01T06:55:36.309Z,101402.78
2023-05-01T06:57:41.921Z,101403.53
2023-05-01T06:59:51.012Z,101405.06
2023-05-01T07:01:55.771Z,101418.25
2023-05-01T07:04:03.755Z,101413.13
2023-05-01T07:06:09.632Z,101414.06
2023-05-01T07:08:14.667Z,101412.28
2023-05-01T07:10:19.415Z,101417.59
2023-05-01T07:12:24.458Z,101421.38
2023-05-01T07:14:28.410Z,101417.75
2023-05-01T07:16:34.178Z,101415.88
2023-05-01T07:18:40.718Z,101419.97
2023-05-01T07:20:45.332Z,101426.69
2023-05-01T07:22:54.900Z,101415.59
2023-05-01T07:25:01.418Z,101419.50
2023-05-01T07:27:06.451Z,101424.28
2023-05-01T07:29:15.796Z,101423.50
2023-05-01T07:31:20.536Z,101424.66
2023-05-01T07:33:28.086Z,101433.94
2023-05-01T07:35:33.054Z,101428.72
2023-05-01T07:37:37.115Z,101435.56
2023-05-01T07:39:47.373Z,101434.00
2023-05-01T07:41:52.126Z,101435.72
2023-05-01T07:43:56.665Z,101441.81
2023-05-01T07:46:02.330Z,101445.50
2023-05-01T07:48:07.407Z,101436.50
2023-05-01T07:50:13.072Z,101444.25
2023-05-01T07:52:17.501Z,101445.56
2023-05-01T07:54:22.448Z,101448.41
2023-05-01T07:56:28.868Z,101448.94
2023-05-01T07:58:33.673Z,101444.00
2023-05-01T08:00:41.358Z,101445.50
2023-05-01T08:02:46.469Z,101456.03
2023-05-01T08:04:50.789Z,101460.78
2023-05-01T08:06:55.676Z,101458.34
2023-05-01T08:08:59.463Z,101457.97
2023-05-01T08:11:04.030Z,101461.38
2023-05-01T08:13:09.439Z,101462.50
2023-05-01T08:15:16.222Z,101472.25
2023-05-01T08:17:20.960Z,101477.34
2023-05-01T08:19:28.219Z,101465.53
2023-05-01T08:21:32.000Z,101461.09
2023-05-01T08:23:38.940Z,101465.69
2023-05-01T08:25:51.580Z,101464.19
2023-05-01T08:28:00.729Z,101462.28
2023-05-01T08:30:10.356Z,101477.31
2023-05-01T08:32:19.417Z,101470.84
2023-05-01T08:34:26.331Z,101479.16
2023-05-01T08:36:33.403Z,101478.16
2023-05-01T08:38:37.793Z,101479.16
2023-05-01T08:40:44.385Z,101477.75
2023-05-01T08:42:49.527Z,101487.00
2023-05-01T08:44:59.737Z,101482.56
2023-05-01T08:47:14.033Z,101479.13
2023-05-01T08:49:19.833Z,101485.94
2023-05-01T08:51:30.824Z,101487.88
2023-05-01T08:53:36.905Z,101494.09
2023-05-01T08:55:42.491Z,101490.66
2023-05-01T08:57:48.284Z,101497.16
2023-05-01T08:59:53.898Z,101500.66
2023-05-01T09:01:59.220Z,101491.94
2023-05-01T09:04:08.101Z,101491.81
2023-05-01T09:06:13.664Z,101489.16
2023-05-01T09:08:17.908Z,101485.63
2023-05-01T09:10:22.679Z,101484.16
2023-05-01T09:12:27.270Z,101485.94
2023-05-01T09:14:33.826Z,101486.47
2023-05-01T09:16:41.745Z,101489.56
2023-05-01T09:18:48.356Z,101494.47
2023-05-01T09:20:56.050Z,101493.72
2023-05-01T09:23:04.968Z,101500.91
2023-05-01T09:25:12.547Z,101489.03
2023-05-01T09:27:20.309Z,101493.84
2023-05-01T09:29:40.862Z,101493.09
2023-05-01T09:31:45.018Z,101491.81
2023-05-01T09:33:58.498Z,101489.16
2023-05-01T09:36:10.064Z,101490.00
2023-05-01T09:38:21.403Z,101490.44
2023-05-01T09:40:31.821Z,101497.25
2023-05-01T09:42:37.694Z,101496.84
2023-05-01T09:44:45.492Z,101504.28
2023-05-01T09:46:52.425Z,101505.59
2023-05-01T09:48:59.699Z,101498.75
2023-05-01T09:51:21.171Z,101492.13
2023-05-01T09:53:43.826Z,101500.13
2023-05-01T09:56:02.692Z,101502.38
2023-05-01T09:58:09.180Z,101500.78
2023-05-01T10:00:15.808Z,101501.63
2023-05-01T10:02:31.185Z,101502.69
2023-05-01T10:04:36.285Z,101494.47
2023-05-01T10:06:41.201Z,101499.56
2023-05-01T10:08:51.356Z,101499.91
2023-05-01T10:11:06.133Z,101507.22
2023-05-01T10:13:17.862Z,101509.94
2023-05-01T10:15:26.786Z,101511.38
2023-05-01T10:17:35.500Z,101508.97
2023-05-01T10:19:40.422Z,101508.44
2023-05-01T10:21:45.037Z,101513.22
2023-05-01T10:23:50.976Z,101517.31
2023-05-01T10:25:56.037Z,101519.44
2023-05-01T10:28:01.837Z,101518.16
2023-05-01T10:30:10.748Z,101518.44
2023-05-01T10:32:17.302Z,101522.97
2023-05-01T10:34:28.378Z,101515.34
2023-05-01T10:36:42.168Z,101523.44
2023-05-01T10:38:48.975Z,101523.50
2023-05-01T10:40:57.437Z,101520.41
2023-05-01T10:43:26.771Z,101522.84
2023-05-01T10:45:35.919Z,101518.88
2023-05-01T10:47:46.984Z,101517.44
2023-05-01T10:50:09.326Z,101510.44
2023-05-01T10:52:14.547Z,101518.56
2023-05-01T10:54:27.186Z,101514.44
2023-05-01T10:56:46.988Z,101517.06
2023-05-01T10:59:01.770Z,101521.44
2023-05-01T11:01:32.609Z,101521.78
2023-05-01T11:03:37.076Z,101519.25
2023-05-01T11:06:09.108Z,101520.56
2023-05-01T11:08:33.513Z,101516.19
2023-05-01T11:10:38.048Z,101521.66
2023-05-01T11:12:57.101Z,101521.16
2023-05-01T11:15:08.475Z,101519.94
2023-05-01T11:17:13.673Z,101520.44
2023-05-01T11:19:51.222Z,101527.63
2023-05-01T11:21:56.572Z,101529.94
2023-05-01T11:24:04.795Z,101534.06
2023-05-01T11:26:09.518Z,101533.09
2023-05-01T11:28:25.409Z,101528.97
2023-05-01T11:30:39.465Z,101531.38
2023-05-01T11:32:47.044Z,101528.97
2023-05-01T11:34:53.272Z,101534.81
2023-05-01T11:36:57.959Z,101528.13
2023-05-01T11:39:01.998Z,101531.41
2023-05-01T11:41:08.186Z,101531.66
2023-05-01T11:43:13.108Z,101522.88
2023-05-01T11:45:21.090Z,101524.47
2023-05-01T11:47:25.449Z,101525.81
2023-05-01T11:49:30.397Z,101527.03
2023-05-01T11:51:34.957Z,101522.28
2023-05-01T11:53:40.092Z,101528.38
2023-05-01T11:55:44.629Z,101526.19
2023-05-01T11:57:50.739Z,101529.44
2023-05-01T11:59:56.341Z,101523.38
2023-05-01T12:02:02.824Z,101523.38
2023-05-01T12:04:10.391Z,101527.00
2023-05-01T12:06:15.669Z,101532.34
2023-05-01T12:08:21.606Z,101527.75
2023-05-01T12:10:26.114Z,101532.88
2023-05-01T12:12:30.582Z,101525.81
2023-05-01T12:14:35.360Z,101526.75
2023-05-01T12:16:40.803Z,101532.13
2023-05-01T12:18:48.588Z,101524.00
2023-05-01T12:20:55.688Z,101523.13
2023-05-01T12:23:01.299Z,101520.94
2023-05-01T12:25:05.975Z,101524.72
2023-05-01T12:27:10.848Z,101527.72
2023-05-01T12:29:15.761Z,101532.09
2023-05-01T12:31:21.582Z,101526.28
2023-05-01T12:33:26.662Z,101517.91
2023-05-01T12:35:35.803Z,101517.44
2023-05-01T12:37:40.761Z,101519.75
2023-05-01T12:39:45.972Z,101529.72
2023-05-01T12:41:51.311Z,101532.66
2023-05-01T12:43:56.437Z,101523.78
2023-05-01T12:46:01.821Z,101523.16
2023-05-01T12:48:14.641Z,101524.16
2023-05-01T12:50:20.906Z,101520.38
2023-05-01T12:52:30.639Z,101523.91
2023-05-01T12:54:38.083Z,101527.41
2023-05-01T12:56:41.850Z,101526.56
2023-05-01T12:58:46.326Z,101524.50
2023-05-01T13:00:54.141Z,101526.81
2023-05-01T13:03:06.939Z,101529.00
2023-05-01T13:05:13.612Z,101536.16
2023-05-01T13:07:20.817Z,101533.75
2023-05-01T13:09:27.544Z,101526.81
2023-05-01T13:11:32.307Z,101539.47
2023-05-01T13:13:37.905Z,101528.63
2023-05-01T13:15:43.028Z,101531.69
2023-05-01T13:17:47.912Z,101518.91
2023-05-01T13:19:56.184Z,101527.66
2023-05-01T13:22:01.669Z,101527.41
2023-05-01T13:24:06.301Z,101528.13
2023-05-01T13:26:12.735Z,101532.16
2023-05-01T13:28:21.957Z,101527.06
2023-05-01T13:30:35.061Z,101527.31
2023-05-01T13:32:42.520Z,101535.09
2023-05-01T13:34:47.484Z,101535.22
2023-05-01T13:36:51.660Z,101537.75
2023-05-01T13:38:57.752Z,101540.94
2023-05-01T13:41:02.721Z,101529.25
2023-05-01T13:43:12.258Z,101528.25
2023-05-01T13:45:21.637Z,101531.88
2023-05-01T13:47:27.996Z,101527.41
2023-05-01T13:49:32.820Z,101539.06
2023-05-01T13:51:43.051Z,101538.00
2023-05-01T13:53:48.343Z,101544.78
2023-05-01T13:55:53.188Z,101545.63
2023-05-01T13:57:57.554Z,101537.72
2023-05-01T14:00:04.011Z,101538.34
2023-05-01T14:02:22.838Z,101535.31
2023-05-01T14:04:31.638Z,101539.31
2023-05-01T14:06:39.538Z,101540.91
2023-05-01T14:08:44.729Z,101540.19
2023-05-01T14:10:49.820Z,101538.34
2023-05-01T14:12:57.893Z,101543.59
2023-05-01T14:15:07.351Z,101537.03
2023-05-01T14:17:13.498Z,101547.13
2023-05-01T14:19:20.263Z,101545.06
2023-05-01T14:21:28.439Z,101544.56
2023-05-01T14:23:37.864Z,101540.81
2023-05-01T14:25:42.790Z,101528.63
2023-05-01T14:27:47.045Z,101535.94
2023-05-01T14:29:52.354Z,101531.94
2023-05-01T14:32:04.324Z,101534.84
2023-05-01T14:34:09.838Z,101540.19
2023-05-01T14:36:16.427Z,101536.03
2023-05-01T14:38:27.847Z,101529.34
2023-05-01T14:40:32.201Z,101539.56
2023-05-01T14:42:38.293Z,101540.19
2023-05-01T14:44:44.949Z,101536.63
2023-05-01T14:46:52.748Z,101543.56
2023-05-01T14:49:00.365Z,101545.03
2023-05-01T14:51:07.048Z,101533.97
2023-05-01T14:53:12.613Z,101533.56
2023-05-01T14:55:20.302Z,101532.47
2023-05-01T14:57:24.466Z,101537.00
2023-05-01T14:59:28.702Z,101542.69
2023-05-01T15:01:35.405Z,101538.69
2023-05-01T15:03:41.515Z,101538.22
2023-05-01T15:05:50.324Z,101540.44
2023-05-01T15:07:57.159Z,101536.50
2023-05-01T15:10:01.743Z,101540.19
2023-05-01T15:12:07.346Z,101540.19
2023-05-01T15:14:12.659Z,101538.00
2023-05-01T15:16:17.175Z,101550.63
2023-05-01T15:18:21.642Z,101544.53
2023-05-01T15:20:25.811Z,101542.88
2023-05-01T15:22:32.104Z,101538.34
2023-05-01T15:24:36.979Z,101542.13
2023-05-01T15:26:41.310Z,101545.88
2023-05-01T15:28:46.960Z,101552.84
2023-05-01T15:30:53.365Z,101546.63
2023-05-01T15:32:57.833Z,101542.00
2023-05-01T15:35:02.830Z,101533.25
2023-05-01T15:37:07.565Z,101550.41
2023-05-01T15:39:16.250Z,101542.84
2023-05-01T15:41:23.916Z,101553.44
2023-05-01T15:43:29.192Z,101551.50
2023-05-01T15:45:34.455Z,101559.66
2023-05-01T15:47:39.015Z,101546.03
2023-05-01T15:49:43.128Z,101551.63
2023-05-01T15:51:47.464Z,101547.13
2023-05-01T15:53:51.997Z,101556.97
2023-05-01T15:56:00.488Z,101552.09
2023-05-01T15:58:05.006Z,101554.19
2023-05-01T16:00:15.073Z,101558.19
2023-05-01T16:02:19.763Z,101556.97
2023-05-01T16:04:24.794Z,101549.75
2023-05-01T16:06:30.599Z,101565.97
2023-05-01T16:08:39.176Z,101556.59
2023-05-01T16:10:44.565Z,101551.50
2023-05-01T16:12:51.418Z,101548.94
2023-05-01T16:14:56.799Z,101545.66
2023-05-01T16:17:01.743Z,101551.13
2023-05-01T16:19:06.555Z,101561.00
2023-05-01T16:21:12.901Z,101556.88
2023-05-01T16:23:18.047Z,101551.63
2023-05-01T16:25:23.496Z,101557.84
2023-05-01T16:27:29.411Z,101561.22
2023-05-01T16:29:36.632Z,101559.41
2023-05-01T16:31:47.376Z,101561.00
2023-05-01T16:33:53.662Z,101565.50
2023-05-01T16:36:00.061Z,101559.16
2023-05-01T16:38:07.046Z,101556.75
2023-05-01T16:40:19.172Z,101564.03
2023-05-01T16:42:24.539Z,101560.88
2023-05-01T16:44:30.507Z,101566.47
2023-05-01T16:46:36.929Z,101559.78
2023-05-01T16:48:42.497Z,101564.41
2023-05-01T16:50:49.504Z,101567.69
2023-05-01T16:52:55.657Z,101567.19
2023-05-01T16:55:00.418Z,101570.81
2023-05-01T16:57:06.291Z,101563.88
2023-05-01T16:59:11.313Z,101563.63
2023-05-01T17:01:17.830Z,101566.94
2023-05-01T17:03:25.162Z,101558.28
2023-05-01T17:05:29.603Z,101565.34
2023-05-01T17:07:34.035Z,101562.78
2023-05-01T17:09:38.350Z,101563.00
2023-05-01T17:11:43.546Z,101563.13
2023-05-01T17:13:48.263Z,101568.47
2023-05-01T17:15:52.928Z,101565.19
2023-05-01T17:17:57.620Z,101563.50
2023-05-01T17:20:04.203Z,101561.91
2023-05-01T17:22:09.414Z,101570.03
2023-05-01T17:24:15.342Z,101567.50
2023-05-01T17:26:20.036Z,101568.47
2023-05-01T17:28:24.868Z,101569.53
2023-05-01T17:30:29.192Z,101568.56
2023-05-01T17:32:37.409Z,101565.06
2023-05-01T17:34:42.766Z,101573.09
2023-05-01T17:36:48.626Z,101564.56
2023-05-01T17:38:53.727Z,101573.66
2023-05-01T17:40:58.170Z,101569.41
2023-05-01T17:43:03.683Z,101566.09
2023-05-01T17:45:10.646Z,101570.69
2023-05-01T17:47:16.280Z,101566.41
2023-05-01T17:49:25.373Z,101570.94
2023-05-01T17:51:30.442Z,101571.25
2023-05-01T17:53:37.871Z,101579.63
2023-05-01T17:55:42.285Z,101580.38
2023-05-01T17:57:47.849Z,101579.47
2023-05-01T17:59:52.795Z,101585.25
2023-05-01T18:01:57.490Z,101576.94
2023-05-01T18:04:02.412Z,101583.06
2023-05-01T18:06:11.632Z,101585.03
2023-05-01T18:08:17.115Z,101589.09
2023-05-01T18:10:23.262Z,101598.41
2023-05-01T18:12:28.140Z,101601.28
2023-05-01T18:14:32.348Z,101597.75
2023-05-01T18:16:38.044Z,101611.31
2023-05-01T18:18:43.265Z,101612.38
2023-05-01T18:20:47.973Z,101612.03
2023-05-01T18:22:53.507Z,101607.16
2023-05-01T18:24:57.731Z,101611.84
2023-05-01T18:27:03.592Z,101614.63
2023-05-01T18:29:08.038Z,101615.47
2023-05-01T18:31:13.946Z,101619.53
2023-05-01T18:33:18.837Z,101618.03
2023-05-01T18:35:23.640Z,101620.81
2023-05-01T18:37:28.101Z,101616.59
2023-05-01T18:39:33.238Z,101626.56
2023-05-01T18:41:37.856Z,101628.13
2023-05-01T18:43:44.193Z,101626.38
2023-05-01T18:45:48.959Z,101635.88
2023-05-01T18:47:53.469Z,101629.63
2023-05-01T18:49:58.421Z,101634.50
2023-05-01T18:52:03.689Z,101632.97
2023-05-01T18:54:10.223Z,101639.72
2023-05-01T18:56:14.667Z,101637.16
2023-05-01T18:58:19.248Z,101636.97
2023-05-01T19:00:26.250Z,101641.25
2023-05-01T19:02:30.557Z,101642.28
2023-05-01T19:04:57.269Z,101648.03
2023-05-01T19:07:04.018Z,101649.63
2023-05-01T19:09:09.817Z,101654.00
2023-05-01T19:11:14.481Z,101648.97
2023-05-01T19:13:19.330Z,101661.97
2023-05-01T19:15:24.835Z,101658.00
2023-05-01T19:17:29.581Z,101671.81
2023-05-01T19:19:34.373Z,101668.16
2023-05-01T19:21:41.849Z,101669.69
2023-05-01T19:23:48.192Z,101671.19
2023-05-01T19:25:52.589Z,101673.75
2023-05-01T19:27:58.358Z,101673.13
2023-05-01T19:30:03.364Z,101675.22
2023-05-01T19:32:10.355Z,101675.59
2023-05-01T19:34:15.634Z,101674.81
2023-05-01T19:36:20.053Z,101675.13
2023-05-01T19:38:24.659Z,101673.13
2023-05-01T19:40:29.133Z,101682.34
2023-05-01T19:42:33.703Z,101681.84
2023-05-01T19:44:42.799Z,101683.91
2023-05-01T19:46:47.839Z,101677.66
2023-05-01T19:48:54.320Z,101675.75
2023-05-01T19:51:03.097Z,101685.25
2023-05-01T19:53:07.943Z,101690.47
2023-05-01T19:55:14.018Z,101685.00
2023-05-01T19:57:18.754Z,101694.41
2023-05-01T19:59:23.997Z,101695.81
2023-05-01T20:01:30.150Z,101700.84
2023-05-01T20:03:39.698Z,101706.00
2023-05-01T20:05:46.254Z,101708.59
2023-05-01T20:07:50.468Z,101712.09
2023-05-01T20:09:55.041Z,101715.59
2023-05-01T20:11:59.349Z,101718.25
2023-05-01T20:14:04.295Z,101721.00
2023-05-01T20:16:10.114Z,101715.78
2023-05-01T20:18:14.802Z,101712.38
2023-05-01T20:20:19.980Z,101724.81
2023-05-01T20:22:26.538Z,101714.44
2023-05-01T20:24:31.660Z,101724.41
2023-05-01T20:26:36.994Z,101730.88
2023-05-01T20:28:41.924Z,101731.91
2023-05-01T20:30:53.013Z,101734.94
2023-05-01T20:35:02.452Z,101737.03
2023-05-01T20:37:10.914Z,101738.06
2023-05-01T20:39:16.654Z,101743.47
2023-05-01T20:41:28.333Z,101740.03
2023-05-01T20:43:37.521Z,101747.25
2023-05-01T20:45:42.980Z,101744.69
2023-05-01T20:47:48.723Z,101747.34
2023-05-01T20:49:57.826Z,101750.19
2023-05-01T20:52:02.655Z,101743.25
2023-05-01T20:54:07.015Z,101756.66
2023-05-01T20:56:14.952Z,101762.13
2023-05-01T20:58:19.640Z,101749.00
2023-05-01T21:00:24.727Z,101753.56
2023-05-01T21:02:29.533Z,101750.13
2023-05-01T21:04:34.259Z,101755.53
2023-05-01T21:06:39.246Z,101756.75
2023-05-01T21:08:45.503Z,101763.84
2023-05-01T21:10:50.180Z,101761.38
2023-05-01T21:12:58.092Z,101758.81
2023-05-01T21:15:03.595Z,101758.03
2023-05-01T21:17:07.928Z,101758.22
2023-05-01T21:19:14.458Z,101765.44
2023-05-01T21:21:19.270Z,101767.41
2023-05-01T21:23:27.718Z,101764.94
2023-05-01T21:25:33.153Z,101765.09
2023-05-01T21:27:42.909Z,101767.06
2023-05-01T21:29:53.146Z,101766.28
2023-05-01T21:31:57.560Z,101778.63
2023-05-01T21:34:03.916Z,101769.97
2023-05-01T21:36:09.132Z,101778.97
2023-05-01T21:38:14.378Z,101777.41
2023-05-01T21:40:20.885Z,101774.91
2023-05-01T21:42:26.527Z,101784.78
2023-05-01T21:44:32.383Z,101785.72
2023-05-01T21:46:40.353Z,101784.00
2023-05-01T21:48:45.065Z,101781.34
2023-05-01T21:50:51.976Z,101794.72
2023-05-01T21:52:58.053Z,101791.28
2023-05-01T21:55:05.201Z,101792.22
2023-05-01T21:57:10.548Z,101797.63
2023-05-01T21:59:15.930Z,101795.91
2023-05-01T22:01:23.862Z,101796.84
2023-05-01T22:03:29.933Z,101802.16
2023-05-01T22:05:35.869Z,101807.56
2023-05-01T22:07:41.650Z,101797.94
2023-05-01T22:09:48.770Z,101804.28
2023-05-01T22:11:53.717Z,101805.34
2023-05-01T22:14:03.183Z,101804.72
2023-05-01T22:16:08.473Z,101804.00
2023-05-01T22:18:17.839Z,101803.25
2023-05-01T22:20:26.225Z,101803.41
2023-05-01T22:22:33.140Z,101807.00
2023-05-01T22:24:38.453Z,101803.56
2023-05-01T22:26:45.787Z,101802.72
2023-05-01T22:28:53.333Z,101801.84
2023-05-01T22:30:58.073Z,101802.81
2023-05-01T22:33:02.146Z,101798.53
2023-05-01T22:35:08.588Z,101807.41
2023-05-01T22:37:15.132Z,101809.28
2023-05-01T22:39:22.488Z,101811.16
2023-05-01T22:41:27.405Z,101808.50
2023-05-01T22:43:31.443Z,101810.38
2023-05-01T22:45:37.002Z,101805.16
2023-05-01T22:47:41.209Z,101808.81
2023-05-01T22:49:46.151Z,101809.88
2023-05-01T22:51:51.626Z,101809.16
2023-05-01T22:54:00.553Z,101817.28
2023-05-01T22:56:08.262Z,101819.16
2023-05-01T22:58:21.285Z,101818.41
2023-05-01T23:00:25.792Z,101823.84
2023-05-01T23:02:29.878Z,101823.91
2023-05-01T23:04:34.316Z,101816.84
2023-05-01T23:06:44.178Z,101820.41
2023-05-01T23:08:49.793Z,101814.09
2023-05-01T23:10:55.880Z,101820.25
2023-05-01T23:13:00.686Z,101818.53
2023-05-01T23:15:15.859Z,101817.69
2023-05-01T23:17:22.321Z,101823.06
2023-05-01T23:19:27.103Z,101824.94
2023-05-01T23:21:31.681Z,101820.59
2023-05-01T23:23:37.618Z,101820.59
2023-05-01T23:25:46.926Z,101822.38
2023-05-01T23:27:55.385Z,101819.03
2023-05-01T23:30:00.197Z,101824.47
2023-05-01T23:32:05.370Z,101819.34
2023-05-01T23:34:10.285Z,101815.84
2023-05-01T23:36:18.825Z,101818.69
2023-05-01T23:38:25.007Z,101817.06
2023-05-01T23:40:30.549Z,101811.91
2023-05-01T23:42:35.718Z,101811.19
2023-05-01T23:44:41.588Z,101813.09
2023-05-01T23:46:51.921Z,101820.97
2023-05-01T23:48:57.463Z,101815.59
2023-05-01T23:51:02.395Z,101822.59
2023-05-01T23:53:08.990Z,101825.25
2023-05-01T23:55:13.259Z,101832.38
2023-05-01T23:57:17.600Z,101828.06
2023-05-01T23:59:21.977Z,101829.09
